createdAt,value
2019-03-04T00:00:18.845Z,992.76
2019-03-04T00:01:18.823Z,992.77
2019-03-04T00:02:18.789Z,992.70
2019-03-04T00:03:18.777Z,992.65
2019-03-04T00:04:18.862Z,992.61
2019-03-04T00:05:18.754Z,992.60
2019-03-04T00:06:18.744Z,992.61
2019-03-04T00:07:18.735Z,992.59
2019-03-04T00:08:18.728Z,992.60
2019-03-04T00:09:18.732Z,992.59
2019-03-04T00:10:18.699Z,992.58
2019-03-04T00:11:18.692Z,992.53
2019-03-04T00:12:18.681Z,992.52
2019-03-04T00:13:18.676Z,992.52
2019-03-04T00:14:18.690Z,992.47
2019-03-04T00:15:18.643Z,992.50
2019-03-04T00:16:19.215Z,992.48
2019-03-04T00:17:18.625Z,992.52
2019-03-04T00:18:18.638Z,992.39
2019-03-04T00:19:18.608Z,992.29
2019-03-04T00:20:18.611Z,992.29
2019-03-04T00:21:18.660Z,992.23
2019-03-04T00:22:18.561Z,992.28
2019-03-04T00:23:18.549Z,992.21
2019-03-04T00:24:18.730Z,992.25
2019-03-04T00:25:18.536Z,992.21
2019-03-04T00:26:18.542Z,992.19
2019-03-04T00:27:18.507Z,992.06
2019-03-04T00:28:18.497Z,992.03
2019-03-04T00:29:18.512Z,992.13
2019-03-04T00:30:18.480Z,992.06
2019-03-04T00:31:18.466Z,992.13
2019-03-04T00:32:18.451Z,992.16
2019-03-04T00:33:18.445Z,992.15
2019-03-04T00:34:18.450Z,992.05
2019-03-04T00:35:18.424Z,991.89
2019-03-04T00:36:18.422Z,991.87
2019-03-04T00:37:18.417Z,991.88
2019-03-04T00:38:18.381Z,991.97
2019-03-04T00:39:18.383Z,992.02
2019-03-04T00:40:18.364Z,992.05
2019-03-04T00:41:18.364Z,991.93
2019-03-04T00:42:18.343Z,991.92
2019-03-04T00:43:18.338Z,991.96
2019-03-04T00:44:18.339Z,991.96
2019-03-04T00:45:18.312Z,991.88
2019-03-04T00:46:18.290Z,991.83
2019-03-04T00:47:18.282Z,991.90
2019-03-04T00:48:18.281Z,991.81
2019-03-04T00:49:18.259Z,991.76
2019-03-04T00:50:18.265Z,991.81
2019-03-04T00:51:18.250Z,991.81
2019-03-04T00:52:18.229Z,991.79
2019-03-04T00:53:18.222Z,991.80
2019-03-04T00:54:18.227Z,991.83
2019-03-04T00:55:18.203Z,991.85
2019-03-04T00:56:18.181Z,991.84
2019-03-04T00:57:18.181Z,991.82
2019-03-04T00:58:18.162Z,991.80
2019-03-04T00:59:18.158Z,991.77
2019-03-04T01:00:18.152Z,991.78
2019-03-04T01:01:18.124Z,991.80
2019-03-04T01:02:18.121Z,991.79
2019-03-04T01:03:18.097Z,991.84
2019-03-04T01:04:18.089Z,991.81
2019-03-04T01:05:18.090Z,991.79
2019-03-04T01:06:18.076Z,991.82
2019-03-04T01:07:18.051Z,991.86
2019-03-04T01:08:18.047Z,991.92
2019-03-04T01:09:18.029Z,991.93
2019-03-04T01:10:18.034Z,991.95
2019-03-04T01:11:18.007Z,991.94
2019-03-04T01:12:17.995Z,991.90
2019-03-04T01:13:18.003Z,991.83
2019-03-04T01:14:17.971Z,991.78
2019-03-04T01:15:17.974Z,991.84
2019-03-04T01:16:17.951Z,991.78
2019-03-04T01:17:17.941Z,991.73
2019-03-04T01:18:17.928Z,991.74
2019-03-04T01:19:17.916Z,991.80
2019-03-04T01:20:17.910Z,991.82
2019-03-04T01:21:17.909Z,991.81
2019-03-04T01:22:17.909Z,991.79
2019-03-04T01:23:17.872Z,991.81
2019-03-04T01:24:17.862Z,991.73
2019-03-04T01:25:17.848Z,991.70
2019-03-04T01:26:17.864Z,991.56
2019-03-04T01:27:17.834Z,991.61
2019-03-04T01:28:17.817Z,991.57
2019-03-04T01:29:17.822Z,991.55
2019-03-04T01:30:17.792Z,991.56
2019-03-04T01:31:17.804Z,991.52
2019-03-04T01:32:17.771Z,991.50
2019-03-04T01:33:17.805Z,991.52
2019-03-04T01:34:17.756Z,991.55
2019-03-04T01:35:17.739Z,991.58
2019-03-04T01:36:17.735Z,991.59
2019-03-04T01:37:17.713Z,991.47
2019-03-04T01:38:17.700Z,991.53
2019-03-04T01:39:17.692Z,991.51
2019-03-04T01:40:17.678Z,991.56
2019-03-04T01:41:17.681Z,991.61
2019-03-04T01:42:17.658Z,991.46
2019-03-04T01:43:17.647Z,991.60
2019-03-04T01:44:17.638Z,991.61
2019-03-04T01:45:17.632Z,991.63
2019-03-04T01:46:17.624Z,991.63
2019-03-04T01:47:17.606Z,991.72
2019-03-04T01:48:17.590Z,991.69
2019-03-04T01:49:17.579Z,991.67
2019-03-04T01:50:17.566Z,991.63
2019-03-04T01:51:17.573Z,991.62
2019-03-04T01:52:17.543Z,991.61
2019-03-04T01:53:17.531Z,991.53
2019-03-04T01:54:17.520Z,991.53
2019-03-04T01:55:17.510Z,991.47
2019-03-04T01:56:17.516Z,991.40
2019-03-04T01:57:17.488Z,991.27
2019-03-04T01:58:17.536Z,991.17
2019-03-04T01:59:17.466Z,991.24
2019-03-04T02:00:17.476Z,991.16
2019-03-04T02:01:17.453Z,991.13
2019-03-04T02:02:17.441Z,991.20
2019-03-04T02:03:17.418Z,991.19
2019-03-04T02:04:17.408Z,991.16
2019-03-04T02:05:17.398Z,991.15
2019-03-04T02:06:17.400Z,991.24
2019-03-04T02:07:17.383Z,991.30
2019-03-04T02:08:17.370Z,991.36
2019-03-04T02:09:17.353Z,991.24
2019-03-04T02:10:17.352Z,991.28
2019-03-04T02:11:17.356Z,991.36
2019-03-04T02:12:17.357Z,991.32
2019-03-04T02:13:17.305Z,991.34
2019-03-04T02:14:17.297Z,991.39
2019-03-04T02:15:17.302Z,991.44
2019-03-04T02:16:17.272Z,991.40
2019-03-04T02:17:17.278Z,991.35
2019-03-04T02:18:17.258Z,991.46
2019-03-04T02:19:17.239Z,991.49
2019-03-04T02:20:17.237Z,991.52
2019-03-04T02:21:17.216Z,991.49
2019-03-04T02:22:17.223Z,991.56
2019-03-04T02:23:17.192Z,991.54
2019-03-04T02:24:17.214Z,991.44
2019-03-04T02:25:17.182Z,991.44
2019-03-04T02:26:17.167Z,991.40
2019-03-04T02:27:17.160Z,991.31
2019-03-04T02:28:17.138Z,991.33
2019-03-04T02:29:17.125Z,991.32
2019-03-04T02:30:17.116Z,991.35
2019-03-04T02:31:17.121Z,991.23
2019-03-04T02:32:17.105Z,991.33
2019-03-04T02:33:17.083Z,991.21
2019-03-04T02:34:17.074Z,991.22
2019-03-04T02:35:17.062Z,991.15
2019-03-04T02:36:17.048Z,991.05
2019-03-04T02:37:17.057Z,991.04
2019-03-04T02:38:17.036Z,990.93
2019-03-04T02:39:17.029Z,990.94
2019-03-04T02:40:17.022Z,990.89
2019-03-04T02:41:16.994Z,990.85
2019-03-04T02:42:16.995Z,990.70
2019-03-04T02:43:16.984Z,990.57
2019-03-04T02:44:16.955Z,990.56
2019-03-04T02:45:16.960Z,990.34
2019-03-04T02:46:16.932Z,990.21
2019-03-04T02:47:16.922Z,990.20
2019-03-04T02:48:16.926Z,990.19
2019-03-04T02:49:16.904Z,990.13
2019-03-04T02:50:16.894Z,990.01
2019-03-04T02:51:16.877Z,989.98
2019-03-04T02:52:16.868Z,989.94
2019-03-04T02:53:16.867Z,990.07
2019-03-04T02:54:16.843Z,990.09
2019-03-04T02:55:16.835Z,990.18
2019-03-04T02:56:16.826Z,990.13
2019-03-04T02:57:16.821Z,990.10
2019-03-04T02:58:16.813Z,989.98
2019-03-04T02:59:16.792Z,989.77
2019-03-04T03:00:16.778Z,989.65
2019-03-04T03:01:16.768Z,989.45
2019-03-04T03:02:16.764Z,989.33
2019-03-04T03:03:16.756Z,989.31
2019-03-04T03:04:16.730Z,989.19
2019-03-04T03:05:16.719Z,989.13
2019-03-04T03:06:16.719Z,989.00
2019-03-04T03:07:16.698Z,988.94
2019-03-04T03:08:16.688Z,988.95
2019-03-04T03:09:16.687Z,988.89
2019-03-04T03:10:16.670Z,988.79
2019-03-04T03:11:16.651Z,988.66
2019-03-04T03:12:16.639Z,988.59
2019-03-04T03:13:16.660Z,988.55
2019-03-04T03:14:16.632Z,988.55
2019-03-04T03:15:16.606Z,988.58
2019-03-04T03:16:16.594Z,988.62
2019-03-04T03:17:16.583Z,988.60
2019-03-04T03:18:16.571Z,988.58
2019-03-04T03:19:16.735Z,988.55
2019-03-04T03:20:16.568Z,988.54
2019-03-04T03:21:16.537Z,988.71
2019-03-04T03:22:16.525Z,988.73
2019-03-04T03:23:16.514Z,988.80
2019-03-04T03:24:16.528Z,988.75
2019-03-04T03:25:16.518Z,988.76
2019-03-04T03:26:16.481Z,988.77
2019-03-04T03:27:16.474Z,988.82
2019-03-04T03:28:16.457Z,988.85
2019-03-04T03:29:16.462Z,988.86
2019-03-04T03:30:16.462Z,988.79
2019-03-04T03:31:16.425Z,988.81
2019-03-04T03:32:16.438Z,988.87
2019-03-04T03:33:16.440Z,988.95
2019-03-04T03:34:16.411Z,988.98
2019-03-04T03:35:16.394Z,988.83
2019-03-04T03:36:16.371Z,988.66
2019-03-04T03:37:16.374Z,988.67
2019-03-04T03:38:16.347Z,988.71
2019-03-04T03:39:16.336Z,988.81
2019-03-04T03:40:16.339Z,988.93
2019-03-04T03:41:16.314Z,988.86
2019-03-04T03:42:18.824Z,988.83
2019-03-04T03:43:16.296Z,988.73
2019-03-04T03:44:16.293Z,988.68
2019-03-04T03:45:16.277Z,988.60
2019-03-04T03:46:16.258Z,988.59
2019-03-04T03:47:16.245Z,988.50
2019-03-04T03:48:16.234Z,988.43
2019-03-04T03:49:16.218Z,988.46
2019-03-04T03:50:16.231Z,988.49
2019-03-04T03:51:16.198Z,988.39
2019-03-04T03:52:16.199Z,988.40
2019-03-04T03:53:16.175Z,988.44
2019-03-04T03:54:16.167Z,988.51
2019-03-04T03:55:16.178Z,988.44
2019-03-04T03:56:16.145Z,988.54
2019-03-04T03:57:16.150Z,988.43
2019-03-04T03:58:16.123Z,988.47
2019-03-04T03:59:16.106Z,988.46
2019-03-04T04:00:16.161Z,988.49
2019-03-04T04:01:16.086Z,988.42
2019-03-04T04:02:16.072Z,988.43
2019-03-04T04:03:16.065Z,988.43
2019-03-04T04:04:16.050Z,988.50
2019-03-04T04:05:16.061Z,988.49
2019-03-04T04:06:16.027Z,988.58
2019-03-04T04:07:16.017Z,988.65
2019-03-04T04:08:16.030Z,988.62
2019-03-04T04:09:15.995Z,988.56
2019-03-04T04:10:16.004Z,988.60
2019-03-04T04:11:15.979Z,988.45
2019-03-04T04:12:15.961Z,988.50
2019-03-04T04:13:15.960Z,988.57
2019-03-04T04:14:15.939Z,988.60
2019-03-04T04:15:15.925Z,988.70
2019-03-04T04:16:15.929Z,988.71
2019-03-04T04:17:15.913Z,988.65
2019-03-04T04:18:15.894Z,988.69
2019-03-04T04:19:15.884Z,988.71
2019-03-04T04:20:15.869Z,988.72
2019-03-04T04:21:15.874Z,988.69
2019-03-04T04:22:15.847Z,988.63
2019-03-04T04:23:15.835Z,988.64
2019-03-04T04:24:15.825Z,988.63
2019-03-04T04:25:15.809Z,988.69
2019-03-04T04:26:15.818Z,988.67
2019-03-04T04:27:15.785Z,988.65
2019-03-04T04:28:15.779Z,988.62
2019-03-04T04:29:15.762Z,988.55
2019-03-04T04:30:15.756Z,988.59
2019-03-04T04:31:15.762Z,988.53
2019-03-04T04:32:15.752Z,988.42
2019-03-04T04:33:15.718Z,988.41
2019-03-04T04:34:15.716Z,988.38
2019-03-04T04:35:15.714Z,988.25
2019-03-04T04:36:15.723Z,988.24
2019-03-04T04:37:15.675Z,988.14
2019-03-04T04:38:15.664Z,988.06
2019-03-04T04:39:15.652Z,987.95
2019-03-04T04:40:15.651Z,987.92
2019-03-04T04:41:15.636Z,987.91
2019-03-04T04:42:15.620Z,987.86
2019-03-04T04:43:15.613Z,987.84
2019-03-04T04:44:15.593Z,987.91
2019-03-04T04:45:15.597Z,987.78
2019-03-04T04:46:15.589Z,987.75
2019-03-04T04:47:15.558Z,987.61
2019-03-04T04:48:15.555Z,987.49
2019-03-04T04:49:15.534Z,987.41
2019-03-04T04:50:15.536Z,987.46
2019-03-04T04:51:15.522Z,987.53
2019-03-04T04:52:15.501Z,987.52
2019-03-04T04:53:15.492Z,987.50
2019-03-04T04:54:15.484Z,987.47
2019-03-04T04:55:15.473Z,987.57
2019-03-04T04:56:15.478Z,987.57
2019-03-04T04:57:15.446Z,987.63
2019-03-04T04:58:15.433Z,987.69
2019-03-04T04:59:15.426Z,987.66
2019-03-04T05:00:15.421Z,987.60
2019-03-04T05:01:15.406Z,987.63
2019-03-04T05:02:15.403Z,987.57
2019-03-04T05:03:15.378Z,987.48
2019-03-04T05:04:15.373Z,987.49
2019-03-04T05:05:15.398Z,987.37
2019-03-04T05:06:15.345Z,987.31
2019-03-04T05:07:15.344Z,987.23
2019-03-04T05:08:15.323Z,987.28
2019-03-04T05:09:15.320Z,987.14
2019-03-04T05:10:15.325Z,987.14
2019-03-04T05:11:15.285Z,987.09
2019-03-04T05:12:15.299Z,987.09
2019-03-04T05:13:15.271Z,987.06
2019-03-04T05:14:15.254Z,987.07
2019-03-04T05:15:15.249Z,987.03
2019-03-04T05:16:15.232Z,987.09
2019-03-04T05:17:15.246Z,987.10
2019-03-04T05:18:15.226Z,987.12
2019-03-04T05:19:15.195Z,987.11
2019-03-04T05:20:15.198Z,987.14
2019-03-04T05:21:15.195Z,987.07
2019-03-04T05:22:15.162Z,987.05
2019-03-04T05:23:15.165Z,986.96
2019-03-04T05:24:15.173Z,986.89
2019-03-04T05:25:15.145Z,986.84
2019-03-04T05:26:15.132Z,986.79
2019-03-04T05:27:15.134Z,986.73
2019-03-04T05:28:15.141Z,986.56
2019-03-04T05:29:15.104Z,986.50
2019-03-04T05:30:15.082Z,986.39
2019-03-04T05:31:15.060Z,986.32
2019-03-04T05:32:15.063Z,986.27
2019-03-04T05:33:15.056Z,986.22
2019-03-04T05:34:15.042Z,986.20
2019-03-04T05:35:15.030Z,986.22
2019-03-04T05:36:15.003Z,986.33
2019-03-04T05:37:15.007Z,986.40
2019-03-04T05:38:15.001Z,986.45
2019-03-04T05:39:14.970Z,986.56
2019-03-04T05:40:14.963Z,986.59
2019-03-04T05:41:14.949Z,986.57
2019-03-04T05:42:14.947Z,986.51
2019-03-04T05:43:14.936Z,986.48
2019-03-04T05:44:14.940Z,986.43
2019-03-04T05:45:14.911Z,986.30
2019-03-04T05:46:14.910Z,986.28
2019-03-04T05:47:14.879Z,986.21
2019-03-04T05:48:14.895Z,986.25
2019-03-04T05:49:14.867Z,986.19
2019-03-04T05:50:14.848Z,986.03
2019-03-04T05:51:14.842Z,985.93
2019-03-04T05:52:14.829Z,985.84
2019-03-04T05:53:14.815Z,985.84
2019-03-04T05:54:14.829Z,985.76
2019-03-04T05:55:14.792Z,985.72
2019-03-04T05:56:14.783Z,985.68
2019-03-04T05:57:14.774Z,985.67
2019-03-04T05:58:14.756Z,985.63
2019-03-04T05:59:19.723Z,985.60
2019-03-04T06:00:15.733Z,985.63
2019-03-04T06:01:14.732Z,985.62
2019-03-04T06:02:14.712Z,985.73
2019-03-04T06:03:14.700Z,985.79
2019-03-04T06:04:14.702Z,985.93
2019-03-04T06:05:14.679Z,985.94
2019-03-04T06:06:14.673Z,985.98
2019-03-04T06:07:14.658Z,986.10
2019-03-04T06:08:14.650Z,986.09
2019-03-04T06:09:14.661Z,986.11
2019-03-04T06:10:14.626Z,986.18
2019-03-04T06:11:14.613Z,986.13
2019-03-04T06:12:14.606Z,986.22
2019-03-04T06:13:14.587Z,986.26
2019-03-04T06:14:14.580Z,986.31
2019-03-04T06:15:14.580Z,986.26
2019-03-04T06:16:14.567Z,986.26
2019-03-04T06:17:14.544Z,986.32
2019-03-04T06:18:14.533Z,986.42
2019-03-04T06:19:14.521Z,986.44
2019-03-04T06:20:14.528Z,986.45
2019-03-04T06:21:14.509Z,986.49
2019-03-04T06:22:14.486Z,986.52
2019-03-04T06:23:14.485Z,986.55
2019-03-04T06:24:14.463Z,986.59
2019-03-04T06:25:14.472Z,986.60
2019-03-04T06:26:14.444Z,986.58
2019-03-04T06:27:14.430Z,986.61
2019-03-04T06:28:14.486Z,986.59
2019-03-04T06:29:14.410Z,986.57
2019-03-04T06:30:14.402Z,986.57
2019-03-04T06:31:14.384Z,986.63
2019-03-04T06:32:14.371Z,986.63
2019-03-04T06:33:14.368Z,986.60
2019-03-04T06:34:14.355Z,986.57
2019-03-04T06:35:14.409Z,986.65
2019-03-04T06:36:14.326Z,986.69
2019-03-04T06:37:14.316Z,986.62
2019-03-04T06:38:14.300Z,986.72
2019-03-04T06:39:14.295Z,986.75
2019-03-04T06:40:14.284Z,986.73
2019-03-04T06:41:14.298Z,986.84
2019-03-04T06:42:14.257Z,986.87
2019-03-04T06:43:14.245Z,986.88
2019-03-04T06:44:14.240Z,986.97
2019-03-04T06:45:14.222Z,987.10
2019-03-04T06:46:14.224Z,987.15
2019-03-04T06:47:14.208Z,987.23
2019-03-04T06:48:14.195Z,987.32
2019-03-04T06:49:14.181Z,987.42
2019-03-04T06:50:14.166Z,987.36
2019-03-04T06:51:14.167Z,987.41
2019-03-04T06:52:14.155Z,987.44
2019-03-04T06:53:14.132Z,987.41
2019-03-04T06:54:14.123Z,987.30
2019-03-04T06:55:14.107Z,987.09
2019-03-04T06:56:14.117Z,987.07
2019-03-04T06:57:14.086Z,987.03
2019-03-04T06:58:14.075Z,986.93
2019-03-04T06:59:14.127Z,986.93
2019-03-04T07:00:14.065Z,986.97
2019-03-04T07:01:14.056Z,987.05
2019-03-04T07:02:14.029Z,987.10
2019-03-04T07:03:14.028Z,986.88
2019-03-04T07:04:14.005Z,986.84
2019-03-04T07:05:13.994Z,986.85
2019-03-04T07:06:14.000Z,986.84
2019-03-04T07:07:13.978Z,986.58
2019-03-04T07:08:13.977Z,986.60
2019-03-04T07:09:13.981Z,986.66
2019-03-04T07:10:13.944Z,986.53
2019-03-04T07:11:13.935Z,986.52
2019-03-04T07:12:13.922Z,986.53
2019-03-04T07:13:13.942Z,986.37
2019-03-04T07:14:13.927Z,986.22
2019-03-04T07:15:13.882Z,986.07
2019-03-04T07:16:13.907Z,985.91
2019-03-04T07:17:13.857Z,985.86
2019-03-04T07:18:13.848Z,985.84
2019-03-04T07:19:13.862Z,985.97
2019-03-04T07:20:13.839Z,985.92
2019-03-04T07:21:13.816Z,985.89
2019-03-04T07:22:13.807Z,985.81
2019-03-04T07:23:13.813Z,985.60
2019-03-04T07:24:13.793Z,985.54
2019-03-04T07:25:13.766Z,985.66
2019-03-04T07:26:13.811Z,985.79
2019-03-04T07:27:13.760Z,986.11
2019-03-04T07:28:13.732Z,986.14
2019-03-04T07:29:15.100Z,986.50
2019-03-04T07:30:13.714Z,986.46
2019-03-04T07:31:13.710Z,986.58
2019-03-04T07:32:13.734Z,986.38
2019-03-04T07:33:13.682Z,986.37
2019-03-04T07:34:13.665Z,986.34
2019-03-04T07:35:13.658Z,986.07
2019-03-04T07:36:13.644Z,986.16
2019-03-04T07:37:13.653Z,986.21
2019-03-04T07:38:13.628Z,985.88
2019-03-04T07:39:13.610Z,985.83
2019-03-04T07:40:13.603Z,985.89
2019-03-04T07:41:13.595Z,985.93
2019-03-04T07:42:13.582Z,985.66
2019-03-04T07:43:13.588Z,985.57
2019-03-04T07:44:13.553Z,985.63
2019-03-04T07:45:13.543Z,985.60
2019-03-04T07:46:13.546Z,985.52
2019-03-04T07:47:13.529Z,985.63
2019-03-04T07:48:13.519Z,985.59
2019-03-04T07:49:13.506Z,985.58
2019-03-04T07:50:13.491Z,985.55
2019-03-04T07:51:13.482Z,985.50
2019-03-04T07:52:13.463Z,985.54
2019-03-04T07:53:13.477Z,985.51
2019-03-04T07:54:13.438Z,985.58
2019-03-04T07:55:13.427Z,985.53
2019-03-04T07:56:13.432Z,985.62
2019-03-04T07:57:13.421Z,985.68
2019-03-04T07:58:13.429Z,985.62
2019-03-04T07:59:13.392Z,985.75
2019-03-04T08:00:13.376Z,985.64
2019-03-04T08:01:13.362Z,985.65
2019-03-04T08:02:13.374Z,985.64
2019-03-04T08:03:13.367Z,985.66
2019-03-04T08:04:13.329Z,985.75
2019-03-04T08:05:13.318Z,985.74
2019-03-04T08:06:13.322Z,985.86
2019-03-04T08:07:13.317Z,985.79
2019-03-04T08:08:13.338Z,985.91
2019-03-04T08:09:13.274Z,985.97
2019-03-04T08:10:13.255Z,985.86
2019-03-04T08:11:13.252Z,985.88
2019-03-04T08:12:13.235Z,985.89
2019-03-04T08:13:13.225Z,986.00
2019-03-04T08:14:13.226Z,985.95
2019-03-04T08:15:13.203Z,986.01
2019-03-04T08:16:13.190Z,986.00
2019-03-04T08:17:13.179Z,985.90
2019-03-04T08:18:13.172Z,985.80
2019-03-04T08:19:13.178Z,985.81
2019-03-04T08:20:13.181Z,985.96
2019-03-04T08:21:13.158Z,985.84
2019-03-04T08:22:13.129Z,985.73
2019-03-04T08:23:13.195Z,985.85
2019-03-04T08:24:13.122Z,985.69
2019-03-04T08:25:13.093Z,985.97
2019-03-04T08:26:13.097Z,985.89
2019-03-04T08:27:13.068Z,985.78
2019-03-04T08:28:13.063Z,985.59
2019-03-04T08:29:13.074Z,985.85
2019-03-04T08:30:13.040Z,985.86
2019-03-04T08:31:13.033Z,986.12
2019-03-04T08:32:13.028Z,986.14
2019-03-04T08:33:13.004Z,986.15
2019-03-04T08:34:13.006Z,986.11
2019-03-04T08:35:12.983Z,986.42
2019-03-04T08:36:12.980Z,986.25
2019-03-04T08:37:13.176Z,986.21
2019-03-04T08:38:12.953Z,986.04
2019-03-04T08:39:12.960Z,985.92
2019-03-04T08:40:12.932Z,985.97
2019-03-04T08:41:12.928Z,986.33
2019-03-04T08:42:12.903Z,986.40
2019-03-04T08:43:12.891Z,986.22
2019-03-04T08:44:12.912Z,986.34
2019-03-04T08:45:12.875Z,986.59
2019-03-04T08:46:12.867Z,986.49
2019-03-04T08:47:12.845Z,986.50
2019-03-04T08:48:12.844Z,986.36
2019-03-04T08:49:12.821Z,986.43
2019-03-04T08:50:12.829Z,986.57
2019-03-04T08:51:12.803Z,986.66
2019-03-04T08:52:12.788Z,986.75
2019-03-04T08:53:12.782Z,986.84
2019-03-04T08:54:12.763Z,987.04
2019-03-04T08:55:12.771Z,987.00
2019-03-04T08:56:12.750Z,986.96
2019-03-04T08:57:12.735Z,986.88
2019-03-04T08:58:12.718Z,986.92
2019-03-04T08:59:12.719Z,986.90
2019-03-04T09:00:12.723Z,987.02
2019-03-04T09:01:12.693Z,987.07
2019-03-04T09:02:12.675Z,986.88
2019-03-04T09:03:12.675Z,986.92
2019-03-04T09:04:12.652Z,987.12
2019-03-04T09:05:12.673Z,987.23
2019-03-04T09:06:12.634Z,987.29
2019-03-04T09:07:12.634Z,987.05
2019-03-04T09:08:12.629Z,987.30
2019-03-04T09:09:12.610Z,987.65
2019-03-04T09:10:12.614Z,987.72
2019-03-04T09:11:12.577Z,987.77
2019-03-04T09:12:12.560Z,987.57
2019-03-04T09:13:12.549Z,987.49
2019-03-04T09:14:12.542Z,987.29
2019-03-04T09:15:12.524Z,987.18
2019-03-04T09:16:12.523Z,987.33
2019-03-04T09:17:12.504Z,987.40
2019-03-04T09:18:12.494Z,987.27
2019-03-04T09:19:12.500Z,987.34
2019-03-04T09:20:12.479Z,987.45
2019-03-04T09:21:12.468Z,987.66
2019-03-04T09:22:12.457Z,987.61
2019-03-04T09:23:12.443Z,987.63
2019-03-04T09:24:12.428Z,987.68
2019-03-04T09:25:12.413Z,987.60
2019-03-04T09:26:12.412Z,987.47
2019-03-04T09:27:12.391Z,987.49
2019-03-04T09:28:12.392Z,987.42
2019-03-04T09:29:12.368Z,987.35
2019-03-04T09:30:12.360Z,987.38
2019-03-04T09:31:12.372Z,987.37
2019-03-04T09:32:12.341Z,987.45
2019-03-04T09:33:12.325Z,987.41
2019-03-04T09:34:12.310Z,987.33
2019-03-04T09:35:12.301Z,987.32
2019-03-04T09:36:12.309Z,987.29
2019-03-04T09:37:12.275Z,987.26
2019-03-04T09:38:12.270Z,987.31
2019-03-04T09:39:12.259Z,987.28
2019-03-04T09:40:12.249Z,987.22
2019-03-04T09:41:12.242Z,987.24
2019-03-04T09:42:12.219Z,987.24
2019-03-04T09:43:12.216Z,987.30
2019-03-04T09:44:12.197Z,987.20
2019-03-04T09:45:12.187Z,987.25
2019-03-04T09:46:12.184Z,987.36
2019-03-04T09:47:12.167Z,987.26
2019-03-04T09:48:12.184Z,987.26
2019-03-04T09:49:12.140Z,987.22
2019-03-04T09:50:12.132Z,987.19
2019-03-04T09:51:12.144Z,987.38
2019-03-04T09:52:12.126Z,987.31
2019-03-04T09:53:12.097Z,987.40
2019-03-04T09:54:12.089Z,987.26
2019-03-04T09:55:12.078Z,987.19
2019-03-04T09:56:12.063Z,987.13
2019-03-04T09:57:12.090Z,986.87
2019-03-04T09:58:12.038Z,987.03
2019-03-04T09:59:12.037Z,987.05
2019-03-04T10:00:12.022Z,987.09
2019-03-04T10:01:12.014Z,987.04
2019-03-04T10:02:12.010Z,987.00
2019-03-04T10:03:11.981Z,987.20
2019-03-04T10:04:11.974Z,987.09
2019-03-04T10:05:13.407Z,987.20
2019-03-04T10:06:11.961Z,987.18
2019-03-04T10:07:11.959Z,987.23
2019-03-04T10:08:11.928Z,987.30
2019-03-04T10:09:11.915Z,987.17
2019-03-04T10:10:11.907Z,987.21
2019-03-04T10:11:11.901Z,987.24
2019-03-04T10:12:11.906Z,987.26
2019-03-04T10:13:11.870Z,987.31
2019-03-04T10:14:11.856Z,987.31
2019-03-04T10:15:11.846Z,987.39
2019-03-04T10:16:18.458Z,987.27
2019-03-04T10:17:12.842Z,987.31
2019-03-04T10:18:11.829Z,987.34
2019-03-04T10:19:11.804Z,987.45
2019-03-04T10:20:11.802Z,987.62
2019-03-04T10:21:11.785Z,987.66
2019-03-04T10:22:11.786Z,987.79
2019-03-04T10:23:11.783Z,987.77
2019-03-04T10:24:11.744Z,987.64
2019-03-04T10:25:11.731Z,987.59
2019-03-04T10:26:15.468Z,987.69
2019-03-04T10:27:12.734Z,987.74
2019-03-04T10:28:11.704Z,987.61
2019-03-04T10:29:11.687Z,987.52
2019-03-04T10:30:11.674Z,987.56
2019-03-04T10:31:11.670Z,987.53
2019-03-04T10:32:11.657Z,987.64
2019-03-04T10:33:11.658Z,987.77
2019-03-04T10:34:11.639Z,987.71
2019-03-04T10:35:11.659Z,987.71
2019-03-04T10:36:11.610Z,987.69
2019-03-04T10:37:11.599Z,987.68
2019-03-04T10:38:11.595Z,987.53
2019-03-04T10:39:11.577Z,987.45
2019-03-04T10:40:11.571Z,987.56
2019-03-04T10:41:11.552Z,987.63
2019-03-04T10:42:11.556Z,987.60
2019-03-04T10:43:11.541Z,987.61
2019-03-04T10:44:11.519Z,987.59
2019-03-04T10:45:11.509Z,987.50
2019-03-04T10:46:11.497Z,987.48
2019-03-04T10:47:11.483Z,987.45
2019-03-04T10:48:11.481Z,987.51
2019-03-04T10:49:11.460Z,987.63
2019-03-04T10:50:11.456Z,987.60
2019-03-04T10:51:11.441Z,987.59
2019-03-04T10:52:11.429Z,987.71
2019-03-04T10:53:11.426Z,987.73
2019-03-04T10:54:11.412Z,987.65
2019-03-04T10:55:11.396Z,987.78
2019-03-04T10:56:11.383Z,987.85
2019-03-04T10:57:11.375Z,987.70
2019-03-04T10:58:11.370Z,987.77
2019-03-04T10:59:11.349Z,987.49
2019-03-04T11:00:11.337Z,987.53
2019-03-04T11:01:11.326Z,987.66
2019-03-04T11:02:11.320Z,987.67
2019-03-04T11:03:11.330Z,987.62
2019-03-04T11:04:11.291Z,987.66
2019-03-04T11:05:11.285Z,987.70
2019-03-04T11:06:11.270Z,987.52
2019-03-04T11:07:11.261Z,987.53
2019-03-04T11:08:11.252Z,987.47
2019-03-04T11:09:11.250Z,987.35
2019-03-04T11:10:11.225Z,987.36
2019-03-04T11:11:11.227Z,987.40
2019-03-04T11:12:11.203Z,987.34
2019-03-04T11:13:11.233Z,987.48
2019-03-04T11:14:11.190Z,987.27
2019-03-04T11:15:11.187Z,987.32
2019-03-04T11:16:11.160Z,987.32
2019-03-04T11:17:11.149Z,987.26
2019-03-04T11:18:11.134Z,987.20
2019-03-04T11:19:11.134Z,987.21
2019-03-04T11:20:11.120Z,987.29
2019-03-04T11:21:11.105Z,987.06
2019-03-04T11:22:11.091Z,987.06
2019-03-04T11:23:11.080Z,986.94
2019-03-04T11:24:11.097Z,986.95
2019-03-04T11:25:11.057Z,986.91
2019-03-04T11:26:11.063Z,986.86
2019-03-04T11:27:11.032Z,987.08
2019-03-04T11:28:11.021Z,986.85
2019-03-04T11:29:13.181Z,986.98
2019-03-04T11:30:11.010Z,986.95
2019-03-04T11:31:10.989Z,987.01
2019-03-04T11:32:10.988Z,987.03
2019-03-04T11:33:10.968Z,986.94
2019-03-04T11:34:10.978Z,986.84
2019-03-04T11:35:10.949Z,986.81
2019-03-04T11:36:10.934Z,986.90
2019-03-04T11:37:10.981Z,986.82
2019-03-04T11:38:10.917Z,986.82
2019-03-04T11:39:10.898Z,986.69
2019-03-04T11:40:10.902Z,986.76
2019-03-04T11:41:10.964Z,986.77
2019-03-04T11:42:10.863Z,986.90
2019-03-04T11:43:10.854Z,986.85
2019-03-04T11:44:10.840Z,986.78
2019-03-04T11:45:10.844Z,986.82
2019-03-04T11:46:10.816Z,987.12
2019-03-04T11:47:10.807Z,986.99
2019-03-04T11:48:10.797Z,986.92
2019-03-04T11:49:10.784Z,986.92
2019-03-04T11:50:10.789Z,986.87
2019-03-04T11:51:10.764Z,986.90
2019-03-04T11:52:10.749Z,986.85
2019-03-04T11:53:10.736Z,986.79
2019-03-04T11:54:10.736Z,986.82
2019-03-04T11:55:10.733Z,986.82
2019-03-04T11:56:10.704Z,986.97
2019-03-04T11:57:10.692Z,987.00
2019-03-04T11:58:10.682Z,986.97
2019-03-04T11:59:10.671Z,986.91
2019-03-04T12:00:10.659Z,986.90
2019-03-04T12:01:10.697Z,986.96
2019-03-04T12:02:10.634Z,986.98
2019-03-04T12:03:10.669Z,987.10
2019-03-04T12:04:10.613Z,987.12
2019-03-04T12:05:10.602Z,986.95
2019-03-04T12:06:10.605Z,986.94
2019-03-04T12:07:10.587Z,986.95
2019-03-04T12:08:10.569Z,986.95
2019-03-04T12:09:10.565Z,986.98
2019-03-04T12:10:10.545Z,986.82
2019-03-04T12:11:10.553Z,986.87
2019-03-04T12:12:10.522Z,986.81
2019-03-04T12:13:10.528Z,986.81
2019-03-04T12:14:10.500Z,986.78
2019-03-04T12:15:10.492Z,986.72
2019-03-04T12:16:10.488Z,986.65
2019-03-04T12:17:10.476Z,986.63
2019-03-04T12:18:10.468Z,986.67
2019-03-04T12:19:10.466Z,986.71
2019-03-04T12:20:10.436Z,986.70
2019-03-04T12:21:10.434Z,986.78
2019-03-04T12:22:10.409Z,986.84
2019-03-04T12:23:10.413Z,986.76
2019-03-04T12:24:10.392Z,986.79
2019-03-04T12:25:10.392Z,986.70
2019-03-04T12:26:10.375Z,986.67
2019-03-04T12:27:10.353Z,986.69
2019-03-04T12:28:10.352Z,986.68